createdAt,value
2018-07-31T05:47:08.101Z,10.00
2018-07-31T05:49:10.171Z,9.23
2018-07-31T05:51:12.300Z,10.47
2018-07-31T05:53:14.359Z,11.13
2018-07-31T05:55:16.416Z,11.70
2018-07-31T05:57:18.511Z,11.73
2018-07-31T05:59:20.516Z,11.53
2018-07-31T06:01:22.628Z,10.73
2018-07-31T06:03:24.683Z,10.57
2018-07-31T06:05:26.682Z,10.30
2018-07-31T06:07:28.724Z,10.80
2018-07-31T06:09:30.758Z,11.00
2018-07-31T06:11:32.801Z,10.93
2018-07-31T06:13:34.933Z,11.50
2018-07-31T06:15:36.987Z,10.13
2018-07-31T06:17:39.015Z,10.07
2018-07-31T06:19:41.045Z,9.57
2018-07-31T06:21:43.092Z,9.73
2018-07-31T06:23:45.128Z,9.20
2018-07-31T06:25:47.146Z,9.97
2018-07-31T06:27:49.185Z,10.40
2018-07-31T06:29:51.256Z,9.80
2018-07-31T06:31:53.328Z,8.80
2018-07-31T06:33:55.406Z,9.17
2018-07-31T06:35:57.464Z,8.90
2018-07-31T06:37:59.504Z,7.97
2018-07-31T06:40:01.550Z,7.90
2018-07-31T06:42:03.601Z,8.00
2018-07-31T06:44:06.090Z,8.33
2018-07-31T06:46:08.108Z,7.93
2018-07-31T06:48:10.226Z,8.67
2018-07-31T06:50:12.254Z,8.13
2018-07-31T06:52:14.295Z,7.80
2018-07-31T06:54:16.315Z,7.53
2018-07-31T06:56:18.436Z,7.90
2018-07-31T06:58:20.464Z,7.70
2018-07-31T07:00:22.497Z,9.00
2018-07-31T07:02:24.568Z,7.63
2018-07-31T07:04:26.600Z,7.63
2018-07-31T07:06:28.616Z,7.50
2018-07-31T07:08:30.668Z,7.60
2018-07-31T07:10:32.685Z,6.93
2018-07-31T07:12:34.773Z,7.30
2018-07-31T07:14:36.796Z,6.23
2018-07-31T07:16:38.814Z,7.20
2018-07-31T07:18:40.860Z,7.03
2018-07-31T07:20:42.892Z,6.80
2018-07-31T07:22:44.950Z,7.23
2018-07-31T07:24:46.983Z,7.20
2018-07-31T07:26:49.012Z,6.33
2018-07-31T07:28:51.124Z,7.30
2018-07-31T07:30:53.156Z,6.80
2018-07-31T07:32:55.217Z,6.50
2018-07-31T07:34:57.262Z,7.60
2018-07-31T07:36:59.280Z,6.43
2018-07-31T07:39:01.320Z,6.43
2018-07-31T07:41:03.354Z,6.87
2018-07-31T07:43:05.402Z,6.50
2018-07-31T07:45:07.405Z,6.77
2018-07-31T07:47:09.840Z,6.43
2018-07-31T07:49:11.883Z,6.97
2018-07-31T07:51:13.918Z,6.50
2018-07-31T07:53:15.953Z,6.77
2018-07-31T07:55:18.002Z,6.93
2018-07-31T07:57:20.101Z,7.30
2018-07-31T07:59:22.140Z,6.20
2018-07-31T08:01:24.358Z,6.90
2018-07-31T08:03:26.480Z,7.07
2018-07-31T08:05:28.544Z,6.43
2018-07-31T08:07:30.612Z,7.00
2018-07-31T08:09:32.727Z,7.10
2018-07-31T08:11:34.779Z,6.80
2018-07-31T08:13:36.836Z,6.17
2018-07-31T08:15:38.935Z,6.67
2018-07-31T08:17:40.952Z,7.07
2018-07-31T08:19:42.976Z,6.90
2018-07-31T08:21:45.089Z,6.87
2018-07-31T08:23:47.229Z,7.30
2018-07-31T08:25:49.264Z,6.80
2018-07-31T08:27:51.421Z,6.63
2018-07-31T08:29:53.377Z,7.30
2018-07-31T08:31:55.417Z,6.73
2018-07-31T08:33:57.637Z,7.50
2018-07-31T08:35:59.683Z,6.17
2018-07-31T08:38:01.712Z,6.70
2018-07-31T08:40:03.834Z,7.27
2018-07-31T08:42:05.940Z,7.30
2018-07-31T08:44:08.001Z,7.00
2018-07-31T08:46:10.010Z,6.40
2018-07-31T08:48:12.044Z,6.60
2018-07-31T08:50:14.153Z,6.63
2018-07-31T08:52:16.237Z,7.37
2018-07-31T08:54:18.260Z,6.27
2018-07-31T08:56:20.276Z,6.57
2018-07-31T08:58:22.288Z,7.77
2018-07-31T09:00:24.389Z,6.83
2018-07-31T09:02:26.409Z,7.63
2018-07-31T09:04:28.451Z,7.07
2018-07-31T09:06:30.460Z,6.40
2018-07-31T09:08:32.543Z,7.40
2018-07-31T09:10:34.501Z,6.63
2018-07-31T09:12:36.541Z,7.00
2018-07-31T09:14:38.605Z,7.23
2018-07-31T09:16:40.693Z,7.27
2018-07-31T09:18:42.708Z,6.80
2018-07-31T09:20:44.754Z,8.00
2018-07-31T09:22:46.775Z,7.47
2018-07-31T09:24:48.821Z,7.30
2018-07-31T09:26:50.802Z,7.27
2018-07-31T09:28:52.817Z,7.57
2018-07-31T09:31:01.034Z,7.60
2018-07-31T09:33:07.028Z,7.30
2018-07-31T09:35:09.123Z,7.07
2018-07-31T09:37:11.151Z,7.30
2018-07-31T09:39:13.173Z,7.47
2018-07-31T09:41:15.184Z,7.40
2018-07-31T09:43:17.248Z,7.87
2018-07-31T09:45:19.273Z,7.60
2018-07-31T09:47:21.305Z,7.83
2018-07-31T09:49:23.331Z,7.87
2018-07-31T09:51:25.329Z,8.37
2018-07-31T09:53:27.364Z,7.60
2018-07-31T09:55:29.393Z,8.10
2018-07-31T09:57:31.397Z,8.20
2018-07-31T09:59:33.445Z,7.40
2018-07-31T10:01:35.484Z,7.43
2018-07-31T10:03:37.497Z,7.20
2018-07-31T10:05:39.516Z,7.27
2018-07-31T10:07:41.521Z,7.50
2018-07-31T10:09:43.561Z,6.93
2018-07-31T10:11:45.675Z,6.93
2018-07-31T10:13:47.658Z,7.10
2018-07-31T10:15:49.922Z,7.10
2018-07-31T10:17:51.991Z,7.10
2018-07-31T10:19:53.941Z,7.80
2018-07-31T10:21:55.937Z,7.10
2018-07-31T10:23:57.936Z,7.63
2018-07-31T10:25:59.960Z,7.40
2018-07-31T10:28:01.960Z,7.83
2018-07-31T10:30:04.445Z,7.50
2018-07-31T10:32:06.445Z,6.90
2018-07-31T10:34:08.457Z,7.30
2018-07-31T10:36:10.529Z,8.30
2018-07-31T10:38:12.545Z,7.43
2018-07-31T10:40:14.571Z,6.63
2018-07-31T10:42:16.584Z,7.30
2018-07-31T10:44:18.589Z,6.70
2018-07-31T10:46:20.603Z,7.17
2018-07-31T10:48:22.609Z,6.07
2018-07-31T10:50:24.624Z,6.17
2018-07-31T10:52:26.924Z,6.30
2018-07-31T10:54:28.931Z,6.63
2018-07-31T10:56:30.936Z,6.20
2018-07-31T10:58:32.964Z,7.00
2018-07-31T11:00:34.965Z,7.00
2018-07-31T11:02:37.168Z,6.43
2018-07-31T11:04:39.144Z,6.60
2018-07-31T11:06:41.192Z,6.90
2018-07-31T11:08:43.201Z,6.60
2018-07-31T11:10:45.232Z,7.47
2018-07-31T11:12:47.229Z,7.20
2018-07-31T11:14:49.261Z,8.07
2018-07-31T11:16:51.320Z,7.20
2018-07-31T11:18:53.397Z,7.07
2018-07-31T11:20:55.491Z,7.10
2018-07-31T11:22:57.452Z,8.03
2018-07-31T11:24:59.500Z,9.00
2018-07-31T11:27:01.526Z,7.20
2018-07-31T11:29:03.525Z,6.63
2018-07-31T11:31:05.684Z,6.80
2018-07-31T11:33:07.729Z,5.60
2018-07-31T11:35:09.741Z,7.33
2018-07-31T11:37:11.748Z,6.33
2018-07-31T11:39:13.829Z,6.13
2018-07-31T11:41:15.844Z,5.80
2018-07-31T11:43:17.895Z,6.00
2018-07-31T11:45:19.941Z,6.17
2018-07-31T11:47:22.945Z,5.50
2018-07-31T11:49:25.039Z,6.00
2018-07-31T11:51:27.129Z,5.37
2018-07-31T11:53:29.253Z,5.40
2018-07-31T11:55:31.329Z,6.17
2018-07-31T11:57:33.396Z,5.30
2018-07-31T11:59:35.447Z,5.43
2018-07-31T12:01:37.512Z,5.57
2018-07-31T12:03:39.621Z,4.83
2018-07-31T12:05:41.728Z,4.27
2018-07-31T12:07:43.780Z,5.27
2018-07-31T12:09:45.872Z,4.70
2018-07-31T12:11:47.946Z,4.57
2018-07-31T12:13:50.054Z,4.60
2018-07-31T12:15:52.122Z,5.53
2018-07-31T12:17:54.258Z,5.40
2018-07-31T12:19:56.345Z,4.83
2018-07-31T12:21:58.439Z,4.53
2018-07-31T12:24:00.513Z,4.87
2018-07-31T12:26:02.659Z,4.80
2018-07-31T12:28:04.768Z,5.60
2018-07-31T12:30:08.189Z,3.90
2018-07-31T12:32:10.334Z,4.60
2018-07-31T12:34:12.437Z,4.30
2018-07-31T12:36:14.498Z,4.63
2018-07-31T12:38:16.651Z,4.47
2018-07-31T12:40:18.670Z,5.63
2018-07-31T12:42:20.810Z,5.10
2018-07-31T12:44:22.868Z,3.97
2018-07-31T12:46:24.956Z,3.50
2018-07-31T12:48:27.070Z,4.40
2018-07-31T12:50:29.228Z,4.40
2018-07-31T12:52:31.448Z,3.80
2018-07-31T12:54:33.565Z,3.93
2018-07-31T12:56:35.626Z,4.10
2018-07-31T12:58:37.704Z,4.30
2018-07-31T13:00:39.789Z,4.00
2018-07-31T13:02:41.924Z,4.10
2018-07-31T13:04:44.025Z,3.43
2018-07-31T13:06:46.228Z,4.30
2018-07-31T13:08:48.221Z,4.10
2018-07-31T13:10:50.297Z,3.97
2018-07-31T13:12:52.384Z,3.60
2018-07-31T13:14:54.480Z,4.50
2018-07-31T13:16:56.670Z,4.50
2018-07-31T13:18:59.235Z,3.90
2018-07-31T13:21:01.397Z,4.30
2018-07-31T13:23:03.491Z,4.40
2018-07-31T13:25:05.584Z,3.90
2018-07-31T13:27:07.676Z,4.33
2018-07-31T13:29:10.276Z,3.87
2018-07-31T13:31:12.438Z,4.70
2018-07-31T13:33:14.504Z,4.07
2018-07-31T13:35:16.648Z,4.30
2018-07-31T13:37:18.872Z,4.60
2018-07-31T13:39:20.928Z,4.20
2018-07-31T13:41:23.010Z,4.30
2018-07-31T13:43:25.196Z,4.07
2018-07-31T13:45:27.217Z,4.50
2018-07-31T13:47:29.280Z,4.10
2018-07-31T13:49:31.489Z,4.70
2018-07-31T13:51:33.565Z,3.67
2018-07-31T13:53:35.649Z,4.43
2018-07-31T13:55:37.705Z,4.03
2018-07-31T13:57:40.246Z,4.50
2018-07-31T13:59:42.301Z,5.07
2018-07-31T14:01:44.449Z,4.40
2018-07-31T14:03:46.507Z,3.83
2018-07-31T14:05:48.569Z,3.83
2018-07-31T14:07:51.273Z,4.20
2018-07-31T14:09:53.434Z,3.90
2018-07-31T14:11:55.644Z,3.70
2018-07-31T14:13:57.689Z,4.30
2018-07-31T14:16:00.036Z,3.90
2018-07-31T14:18:02.140Z,4.17
2018-07-31T14:20:04.273Z,4.17
2018-07-31T14:22:06.425Z,4.20
2018-07-31T14:24:08.537Z,4.20
2018-07-31T14:26:10.592Z,4.77
2018-07-31T14:28:12.740Z,3.50
2018-07-31T14:30:14.818Z,4.60
2018-07-31T14:32:16.924Z,4.60
2018-07-31T14:34:19.092Z,3.60
2018-07-31T14:36:21.369Z,3.70
2018-07-31T14:38:23.741Z,3.80
2018-07-31T14:40:26.105Z,3.47
2018-07-31T14:42:28.218Z,3.70
2018-07-31T14:44:30.273Z,3.43
2018-07-31T14:46:32.353Z,4.47
2018-07-31T14:48:34.502Z,4.30
2018-07-31T14:50:37.009Z,3.80
2018-07-31T14:52:39.212Z,3.90
2018-07-31T14:54:41.788Z,3.80
2018-07-31T14:56:43.844Z,3.70
2018-07-31T14:58:46.121Z,4.53
2018-07-31T15:00:48.301Z,3.53
2018-07-31T15:02:50.681Z,3.77
2018-07-31T15:04:52.794Z,3.93
2018-07-31T15:06:54.841Z,3.67
2018-07-31T15:08:57.197Z,3.33
2018-07-31T15:10:59.563Z,3.47
2018-07-31T15:13:01.957Z,3.70
2018-07-31T15:15:04.129Z,2.93
2018-07-31T15:17:08.168Z,3.30
2018-07-31T15:19:12.366Z,3.20
2018-07-31T15:21:15.848Z,4.07
2018-07-31T15:23:19.011Z,4.50
2018-07-31T15:25:21.373Z,3.83
2018-07-31T15:27:24.206Z,4.10
2018-07-31T15:29:27.293Z,3.90
2018-07-31T15:31:31.592Z,3.90
2018-07-31T15:33:34.113Z,5.67
2018-07-31T15:35:36.250Z,8.10
2018-07-31T15:37:38.341Z,10.40
2018-07-31T15:39:40.797Z,4.83
2018-07-31T15:41:43.117Z,3.40
2018-07-31T15:43:46.079Z,3.70
2018-07-31T15:45:49.342Z,3.90
2018-07-31T15:47:51.925Z,3.07
2018-07-31T15:49:55.240Z,3.50
2018-07-31T15:51:59.433Z,2.70
2018-07-31T15:54:01.762Z,3.50
2018-07-31T15:56:04.691Z,3.70
2018-07-31T15:58:11.261Z,3.20
2018-07-31T16:00:14.039Z,4.07
2018-07-31T16:02:17.143Z,3.43
2018-07-31T16:04:19.504Z,3.07
2018-07-31T16:06:22.454Z,3.80
2018-07-31T16:08:24.673Z,3.40
2018-07-31T16:10:27.009Z,3.43
2018-07-31T16:12:29.150Z,3.23
2018-07-31T16:14:31.465Z,3.50
2018-07-31T16:16:33.756Z,3.60
2018-07-31T16:18:36.501Z,3.37
2018-07-31T16:20:38.639Z,3.20
2018-07-31T16:22:41.322Z,3.23
2018-07-31T16:24:44.194Z,3.33
2018-07-31T16:26:46.730Z,3.77
2018-07-31T16:28:48.945Z,3.10
2018-07-31T16:30:51.274Z,3.87
2018-07-31T16:32:53.819Z,3.00
2018-07-31T16:34:56.924Z,3.80
2018-07-31T16:36:59.348Z,3.50
2018-07-31T16:39:01.785Z,4.00
2018-07-31T16:41:04.142Z,3.00
2018-07-31T16:43:06.513Z,2.80
2018-07-31T16:45:09.107Z,3.23
2018-07-31T16:47:11.337Z,3.13
2018-07-31T16:49:13.574Z,3.27
2018-07-31T16:51:16.166Z,3.20
2018-07-31T16:53:18.550Z,3.50
2018-07-31T16:55:21.337Z,4.00
2018-07-31T16:57:23.561Z,3.40
2018-07-31T16:59:25.770Z,3.53
2018-07-31T17:01:27.886Z,4.37
2018-07-31T17:03:30.025Z,3.70
2018-07-31T17:05:32.144Z,3.90
2018-07-31T17:07:34.271Z,4.13
2018-07-31T17:09:36.399Z,4.20
2018-07-31T17:11:38.549Z,4.20
2018-07-31T17:13:40.777Z,3.37
2018-07-31T17:15:42.873Z,4.10
2018-07-31T17:17:44.961Z,3.60
2018-07-31T17:19:47.062Z,3.70
2018-07-31T17:21:49.161Z,4.03
2018-07-31T17:23:51.269Z,4.73
2018-07-31T17:25:53.393Z,4.30
2018-07-31T17:27:55.474Z,3.73
2018-07-31T17:29:57.634Z,4.40
2018-07-31T17:31:59.797Z,4.73
2018-07-31T17:34:02.011Z,4.23
2018-07-31T17:36:04.211Z,4.30
2018-07-31T17:38:06.390Z,4.20
2018-07-31T17:40:08.549Z,4.67
2018-07-31T17:42:10.836Z,4.23
2018-07-31T17:44:13.026Z,4.10
2018-07-31T17:46:15.054Z,4.40
2018-07-31T17:48:17.261Z,4.00
2018-07-31T17:50:19.469Z,4.90
2018-07-31T17:52:21.773Z,3.77
2018-07-31T17:54:23.977Z,4.27
2018-07-31T17:56:26.213Z,4.50
2018-07-31T17:58:28.324Z,4.30
2018-07-31T18:00:30.477Z,3.90
2018-07-31T18:02:40.565Z,3.83
2018-07-31T18:04:42.797Z,3.87
2018-07-31T18:06:45.180Z,5.03
2018-07-31T18:08:47.538Z,4.23
2018-07-31T18:10:49.701Z,4.00
2018-07-31T18:12:51.871Z,5.53
2018-07-31T18:14:54.182Z,4.73
2018-07-31T18:16:56.298Z,4.57
2018-07-31T18:18:58.444Z,4.57
2018-07-31T18:21:00.665Z,4.37
2018-07-31T18:23:02.762Z,4.63
2018-07-31T18:25:04.866Z,4.33
2018-07-31T18:27:07.322Z,4.10
2018-07-31T18:29:09.510Z,4.10
2018-07-31T18:31:11.803Z,5.20
2018-07-31T18:33:14.125Z,3.83
2018-07-31T18:35:16.339Z,4.00
2018-07-31T18:37:18.465Z,4.13
2018-07-31T18:39:20.638Z,3.70
2018-07-31T18:41:22.754Z,3.83
2018-07-31T18:43:24.882Z,4.27
2018-07-31T18:45:27.006Z,4.43
2018-07-31T18:47:29.281Z,4.37
2018-07-31T18:49:31.489Z,4.10
2018-07-31T18:51:33.614Z,3.77
2018-07-31T18:53:35.825Z,4.20
2018-07-31T18:55:38.009Z,4.60
2018-07-31T18:57:40.319Z,4.13
2018-07-31T18:59:42.743Z,4.07
2018-07-31T19:01:45.026Z,3.90
2018-07-31T19:03:47.205Z,4.13
2018-07-31T19:05:49.372Z,3.70
2018-07-31T19:07:53.554Z,4.23
2018-07-31T19:09:55.887Z,3.83
2018-07-31T19:11:58.243Z,3.83
2018-07-31T19:14:00.498Z,3.17
2018-07-31T19:16:02.634Z,3.67
2018-07-31T19:18:04.897Z,3.90
2018-07-31T19:20:08.014Z,3.63
2018-07-31T19:22:10.233Z,3.87
2018-07-31T19:24:12.429Z,4.13
2018-07-31T19:26:14.706Z,4.00
2018-07-31T19:28:17.970Z,3.93
2018-07-31T19:30:21.347Z,4.00
2018-07-31T19:32:23.670Z,4.40
2018-07-31T19:34:27.350Z,3.87
2018-07-31T19:36:29.856Z,3.53
2018-07-31T19:38:34.063Z,4.20
2018-07-31T19:40:40.236Z,4.47
2018-07-31T19:42:42.687Z,3.93
2018-07-31T19:44:45.702Z,4.20
2018-07-31T19:46:47.877Z,3.90
2018-07-31T19:48:50.114Z,3.97
2018-07-31T19:50:52.773Z,3.90
2018-07-31T19:52:57.383Z,4.30
2018-07-31T19:55:00.335Z,3.60
2018-07-31T19:57:03.092Z,3.83
2018-07-31T19:59:05.686Z,3.60
2018-07-31T20:01:08.199Z,3.90
2018-07-31T20:03:11.050Z,4.07
2018-07-31T20:05:14.278Z,3.87
2018-07-31T20:07:17.779Z,4.17
2018-07-31T20:09:25.242Z,4.10
2018-07-31T20:11:27.987Z,3.90
2018-07-31T20:13:30.749Z,3.30
2018-07-31T20:15:34.326Z,4.30
2018-07-31T20:17:36.714Z,3.47
2018-07-31T20:19:39.788Z,4.40
2018-07-31T20:21:42.098Z,3.83
2018-07-31T20:23:44.479Z,4.10
2018-07-31T20:25:47.998Z,3.33
2018-07-31T20:27:51.989Z,4.00
2018-07-31T20:29:57.067Z,4.17
2018-07-31T20:32:06.698Z,3.57
2018-07-31T20:34:12.018Z,4.23
2018-07-31T20:36:15.145Z,4.03
2018-07-31T20:38:18.323Z,3.80
2018-07-31T20:40:24.929Z,3.77
2018-07-31T20:42:27.979Z,3.70
2018-07-31T20:44:37.338Z,3.93
2018-07-31T20:46:41.366Z,3.17
2018-07-31T20:48:48.145Z,4.00
2018-07-31T20:50:55.067Z,4.07
2018-07-31T20:55:49.977Z,3.73
2018-07-31T20:58:14.505Z,3.47
2018-07-31T21:00:27.711Z,3.60
2018-07-31T21:02:32.117Z,4.20
2018-07-31T21:04:38.227Z,3.83
